Time;durP1;ratioP1;P1;durP2;ratioP2;P2;SDS_P1;SDS_P2;PMS_P1;PMS_P2;Temp;Humidity;BMP_temperature;BMP_pressure;BME280_temperature;BME280_humidity;BME280_pressure;Samples;Min_cycle;Max_cycle;Signal;HPM_P1;HPM_P2
2022/08/04 00:00:09;;;;;;;6.63;6.13;;;23.90;99.90;;;;;;5047952;28;20440;-70
2022/08/04 00:03:06;;;;;;;7.27;6.77;;;23.90;99.90;;;;;;5032224;28;20529;-70
2022/08/04 00:06:02;;;;;;;7.27;6.57;;;23.90;99.90;;;;;;5033150;28;20506;-70
2022/08/04 00:08:50;;;;;;;7.27;6.57;;;23.90;99.90;;;;;;5023445;28;20444;-70
2022/08/04 00:11:28;;;;;;;6.83;5.73;;;23.80;99.90;;;;;;5020891;28;20443;-70
2022/08/04 00:14:01;;;;;;;7.17;6.63;;;23.80;99.90;;;;;;5032710;28;20469;-69
2022/08/04 00:16:35;;;;;;;8.23;6.40;;;23.80;99.90;;;;;;5034960;28;20527;-70
2022/08/04 00:19:06;;;;;;;6.77;5.80;;;23.80;99.90;;;;;;5022288;28;20932;-71
2022/08/04 00:21:36;;;;;;;7.83;6.30;;;23.70;99.90;;;;;;5027702;28;20436;-70
2022/08/04 00:24:02;;;;;;;6.57;5.97;;;23.70;99.90;;;;;;5024432;28;20491;-70
2022/08/04 00:26:28;;;;;;;6.80;5.83;;;23.70;99.90;;;;;;5028008;28;20432;-70
2022/08/04 00:28:55;;;;;;;9.30;7.07;;;23.70;99.90;;;;;;5031332;28;20437;-70
2022/08/04 00:31:21;;;;;;;6.53;5.90;;;23.80;99.90;;;;;;5014399;28;20949;-70
2022/08/04 00:33:48;;;;;;;8.20;7.40;;;23.80;99.90;;;;;;5016970;28;20501;-70
2022/08/04 00:36:16;;;;;;;7.07;6.47;;;23.80;99.90;;;;;;5029697;28;20437;-71
2022/08/04 00:38:43;;;;;;;6.73;6.10;;;23.80;99.90;;;;;;5029381;28;20440;-70
2022/08/04 00:41:17;;;;;;;6.70;6.10;;;23.70;99.90;;;;;;5028410;28;20793;-70
2022/08/04 00:43:55;;;;;;;7.03;6.27;;;23.70;99.90;;;;;;5028562;28;20795;-70
2022/08/04 00:47:02;;;;;;;8.40;6.03;;;23.70;99.90;;;;;;5034470;28;20433;-70
2022/08/04 00:49:46;;;;;;;6.00;5.40;;;23.60;99.90;;;;;;5027823;28;20439;-70
2022/08/04 00:52:35;;;;;;;7.17;6.47;;;23.60;99.90;;;;;;5014823;28;20422;-71
2022/08/04 00:55:03;;;;;;;8.17;6.70;;;23.60;99.90;;;;;;5027201;28;20535;-70
2022/08/04 00:57:38;;;;;;;7.00;6.40;;;23.60;99.90;;;;;;5025492;28;20492;-70
2022/08/04 01:00:10;;;;;;;5.83;5.33;;;23.60;99.90;;;;;;5017120;28;20447;-70
2022/08/04 01:03:05;;;;;;;5.67;5.20;;;23.50;99.90;;;;;;5030871;28;20437;-70
2022/08/04 01:05:37;;;;;;;6.50;5.90;;;23.50;99.90;;;;;;5008696;28;20575;-70
2022/08/04 01:08:28;;;;;;;8.70;5.53;;;23.50;99.90;;;;;;5031733;28;20790;-70
2022/08/04 01:11:10;;;;;;;7.10;6.00;;;23.50;99.90;;;;;;5020248;28;20440;-70
2022/08/04 01:14:06;;;;;;;6.90;6.10;;;23.50;99.90;;;;;;5031407;28;20453;-70
2022/08/04 01:16:38;;;;;;;7.17;5.80;;;23.40;99.90;;;;;;5031630;28;20450;-70
2022/08/04 01:19:29;;;;;;;8.73;5.93;;;23.30;99.90;;;;;;5034051;28;20438;-70
2022/08/04 01:22:34;;;;;;;5.93;5.47;;;23.30;99.90;;;;;;5026614;28;20493;-71
2022/08/04 01:25:33;;;;;;;6.70;6.17;;;23.30;99.90;;;;;;5032408;28;20447;-70
2022/08/04 01:28:35;;;;;;;7.77;5.87;;;23.30;99.90;;;;;;5029156;28;20932;-70
2022/08/04 01:31:32;;;;;;;6.33;5.80;;;23.30;99.90;;;;;;5029270;28;20432;-70
2022/08/04 01:34:00;;;;;;;7.00;6.00;;;23.30;99.90;;;;;;5023786;28;20457;-70
2022/08/04 01:36:29;;;;;;;7.70;7.00;;;23.30;99.90;;;;;;5027789;28;20841;-70
2022/08/04 01:38:54;;;;;;;7.03;6.40;;;23.30;99.90;;;;;;5026585;28;20444;-70
2022/08/04 01:41:22;;;;;;;7.07;6.47;;;23.30;99.90;;;;;;5017702;28;20524;-70
2022/08/04 01:43:52;;;;;;;7.00;6.30;;;23.30;99.90;;;;;;5021629;28;20195;-70
2022/08/04 01:46:20;;;;;;;6.17;5.67;;;23.30;99.90;;;;;;5028659;28;20437;-72
2022/08/04 01:48:51;;;;;;;7.60;6.00;;;23.30;99.90;;;;;;5001974;28;20774;-70
2022/08/04 01:51:20;;;;;;;6.50;6.00;;;23.30;99.90;;;;;;5013518;28;20504;-72
2022/08/04 01:53:46;;;;;;;6.43;5.70;;;23.20;99.90;;;;;;5026913;28;20472;-70
2022/08/04 01:56:12;;;;;;;6.77;6.17;;;23.20;99.90;;;;;;5029693;28;20486;-70
2022/08/04 01:58:39;;;;;;;8.33;6.10;;;23.20;99.90;;;;;;5031334;28;21077;-70
2022/08/04 02:01:10;;;;;;;9.77;6.70;;;23.20;99.90;;;;;;5027560;28;20206;-70
2022/08/04 02:03:39;;;;;;;6.90;6.30;;;23.10;99.90;;;;;;5030632;28;20443;-70
2022/08/04 02:06:25;;;;;;;6.53;5.90;;;23.10;99.90;;;;;;5023825;28;20516;-70
2022/08/04 02:09:07;;;;;;;8.27;6.20;;;23.10;99.90;;;;;;5030843;28;20940;-71
2022/08/04 02:11:33;;;;;;;6.47;5.97;;;23.10;99.90;;;;;;5033507;28;20443;-70
2022/08/04 02:14:08;;;;;;;7.33;5.73;;;23.10;99.90;;;;;;5030844;28;20471;-71
2022/08/04 02:16:43;;;;;;;9.10;6.40;;;23.10;99.90;;;;;;5033859;28;20357;-70
2022/08/04 02:19:30;;;;;;;6.50;5.53;;;23.10;99.90;;;;;;5031868;28;20440;-69
2022/08/04 02:22:08;;;;;;;7.83;5.70;;;23.10;99.90;;;;;;5029870;28;20429;-70
2022/08/04 02:24:53;;;;;;;5.60;5.10;;;23.00;99.90;;;;;;5012639;28;20906;-70
2022/08/04 02:27:27;;;;;;;5.93;5.43;;;23.00;99.90;;;;;;5020959;28;20465;-72
2022/08/04 02:30:02;;;;;;;8.43;6.70;;;23.00;99.90;;;;;;5031932;28;20433;-70
2022/08/04 02:32:37;;;;;;;7.13;6.30;;;23.00;99.90;;;;;;5032546;28;20432;-70
2022/08/04 02:35:08;;;;;;;7.37;6.70;;;23.00;99.90;;;;;;5011534;28;20885;-70
2022/08/04 02:37:34;;;;;;;7.40;6.80;;;23.00;99.90;;;;;;5030291;28;20827;-70
2022/08/04 02:40:03;;;;;;;7.70;6.87;;;23.00;99.90;;;;;;5021194;28;20441;-70
2022/08/04 02:42:31;;;;;;;7.37;6.70;;;23.00;99.90;;;;;;5025810;28;20441;-70
2022/08/04 02:44:58;;;;;;;8.13;7.00;;;23.00;99.90;;;;;;5018343;28;20442;-70
2022/08/04 02:47:27;;;;;;;7.93;7.13;;;23.00;99.90;;;;;;5036456;28;20429;-70
2022/08/04 02:49:54;;;;;;;7.67;7.03;;;23.00;99.90;;;;;;5028497;28;20460;-70
2022/08/04 02:52:23;;;;;;;7.87;7.17;;;23.00;99.90;;;;;;5028618;28;20471;-72
2022/08/04 02:54:52;;;;;;;7.60;7.00;;;23.10;99.90;;;;;;5037361;28;20469;-70
2022/08/04 02:57:20;;;;;;;8.93;7.40;;;23.00;99.90;;;;;;5019739;28;20436;-70
2022/08/04 03:00:10;;;;;;;7.57;6.70;;;23.00;99.90;;;;;;5042670;28;20486;-70
2022/08/04 03:03:03;;;;;;;6.57;6.07;;;23.00;99.90;;;;;;5036111;28;20508;-70
2022/08/04 03:05:38;;;;;;;8.83;6.80;;;23.00;99.90;;;;;;5031438;28;20524;-70
2022/08/04 03:08:44;;;;;;;7.87;7.10;;;22.90;99.90;;;;;;5030781;28;20444;-70
2022/08/04 03:11:10;;;;;;;6.90;6.40;;;22.80;99.90;;;;;;5027226;28;20511;-70
2022/08/04 03:14:01;;;;;;;6.97;6.30;;;22.80;99.90;;;;;;5010765;28;22246;-70
2022/08/04 03:16:48;;;;;;;7.37;6.67;;;22.80;99.90;;;;;;5014871;28;20188;-70
2022/08/04 03:19:27;;;;;;;7.53;6.73;;;22.70;99.90;;;;;;5040486;28;20433;-70
2022/08/04 03:21:56;;;;;;;7.00;6.50;;;22.60;99.90;;;;;;5025659;28;20479;-70
2022/08/04 03:24:57;;;;;;;12.57;7.43;;;22.60;99.90;;;;;;5029466;28;20441;-71
2022/08/04 03:28:22;;;;;;;11.30;8.10;;;22.60;99.90;;;;;;5021938;28;20457;-71
2022/08/04 03:31:09;;;;;;;7.70;7.20;;;22.50;99.90;;;;;;5002243;28;20455;-70
2022/08/04 03:33:45;;;;;;;8.07;6.20;;;22.50;99.90;;;;;;5025636;28;20472;-70
2022/08/04 03:36:38;;;;;;;10.23;8.00;;;22.40;99.90;;;;;;5029195;28;20436;-70
2022/08/04 03:39:25;;;;;;;7.93;7.30;;;22.40;99.90;;;;;;5029241;28;20528;-70
2022/08/04 03:42:03;;;;;;;8.60;7.40;;;22.40;99.90;;;;;;5021947;28;20872;-70
2022/08/04 03:44:29;;;;;;;7.57;6.97;;;22.30;99.90;;;;;;5018804;28;20503;-70
2022/08/04 03:47:13;;;;;;;7.20;6.70;;;22.30;99.90;;;;;;5033162;28;20535;-70
2022/08/04 03:50:07;;;;;;;7.67;7.00;;;22.30;99.90;;;;;;5014362;28;20621;-70
2022/08/04 03:55:38;;;;;;;8.77;8.03;;;22.30;99.90;;;;;;5043196;28;20942;-72
2022/08/04 03:58:19;;;;;;;8.30;7.50;;;22.20;99.90;;;;;;5031920;28;20444;-70
2022/08/04 04:01:15;;;;;;;7.37;6.67;;;22.20;99.90;;;;;;5017391;28;20512;-70
2022/08/04 04:03:56;;;;;;;8.50;7.70;;;22.20;99.90;;;;;;5034717;28;20787;-71
2022/08/04 04:06:40;;;;;;;7.00;6.30;;;22.20;99.90;;;;;;5028885;28;20430;-71
2022/08/04 04:09:38;;;;;;;6.97;6.37;;;22.20;99.90;;;;;;5039244;28;20482;-70
2022/08/04 04:12:57;;;;;;;8.43;7.70;;;22.20;99.90;;;;;;5036478;28;20432;-70
2022/08/04 04:15:38;;;;;;;9.93;7.20;;;22.10;99.90;;;;;;5031610;28;20874;-71
2022/08/04 04:18:09;;;;;;;7.70;7.03;;;22.10;99.90;;;;;;5045737;28;20439;-71
2022/08/04 04:20:44;;;;;;;9.17;8.47;;;22.10;99.90;;;;;;5036059;28;20498;-71
2022/08/04 04:23:27;;;;;;;7.80;7.00;;;22.10;99.90;;;;;;5031029;28;20440;-70
2022/08/04 04:26:29;;;;;;;8.53;7.73;;;22.20;99.90;;;;;;5027018;28;20460;-71
2022/08/04 04:29:11;;;;;;;7.17;6.70;;;22.20;99.90;;;;;;5036630;28;20437;-71
2022/08/04 04:32:03;;;;;;;8.07;7.03;;;22.20;99.90;;;;;;5033463;28;20512;-72
2022/08/04 04:34:50;;;;;;;11.07;7.40;;;22.20;99.90;;;;;;5029782;28;20972;-72
2022/08/04 04:37:39;;;;;;;7.53;6.93;;;22.20;99.90;;;;;;5026177;28;20440;-71
2022/08/04 04:40:38;;;;;;;8.00;7.17;;;22.20;99.90;;;;;;5026382;28;20433;-71
2022/08/04 04:43:29;;;;;;;8.00;7.30;;;22.20;99.90;;;;;;5030392;28;20433;-72
2022/08/04 04:46:29;;;;;;;8.13;7.20;;;22.30;99.90;;;;;;5028291;28;20428;-72
2022/08/04 04:49:21;;;;;;;7.33;6.73;;;22.50;99.90;;;;;;5020273;28;20975;-72
2022/08/04 04:52:03;;;;;;;8.07;6.90;;;22.70;99.90;;;;;;5014553;28;20481;-72
2022/08/04 04:54:38;;;;;;;8.37;7.10;;;22.80;99.90;;;;;;5026319;28;20468;-72
2022/08/04 04:57:17;;;;;;;8.50;7.70;;;23.00;99.90;;;;;;5030452;28;20778;-72
2022/08/04 05:00:04;;;;;;;9.37;7.50;;;23.10;99.90;;;;;;5029259;28;20437;-71
2022/08/04 05:02:46;;;;;;;8.03;7.33;;;23.20;99.90;;;;;;5029869;28;20465;-72
2022/08/04 05:05:49;;;;;;;8.60;7.90;;;23.30;99.90;;;;;;5030603;28;20519;-71
2022/08/04 05:08:26;;;;;;;10.63;9.73;;;23.40;99.90;;;;;;5026642;28;20429;-72
2022/08/04 05:11:03;;;;;;;8.53;6.27;;;23.50;99.90;;;;;;5028767;28;20437;-72
2022/08/04 05:13:35;;;;;;;7.30;6.60;;;23.60;99.90;;;;;;5043417;28;20551;-72
2022/08/04 05:16:16;;;;;;;9.50;8.67;;;23.70;99.90;;;;;;5026914;28;20452;-72
2022/08/04 05:18:48;;;;;;;8.00;7.30;;;23.70;99.90;;;;;;5030563;28;20948;-72
2022/08/04 05:21:20;;;;;;;8.33;7.63;;;23.80;99.90;;;;;;5032337;28;21008;-72
2022/08/04 05:23:50;;;;;;;9.20;8.40;;;23.80;99.90;;;;;;5026668;28;20579;-72
2022/08/04 05:26:20;;;;;;;9.47;8.53;;;23.90;99.90;;;;;;5027729;28;20428;-72
2022/08/04 05:28:58;;;;;;;10.80;7.57;;;23.90;99.90;;;;;;5030626;28;20437;-72
2022/08/04 05:31:28;;;;;;;8.73;7.33;;;23.90;99.90;;;;;;5024253;28;20436;-72
2022/08/04 05:34:31;;;;;;;12.80;7.57;;;24.00;99.90;;;;;;5026021;28;20484;-72
2022/08/04 05:37:05;;;;;;;9.03;8.20;;;24.00;99.90;;;;;;5013273;28;20508;-72
2022/08/04 05:39:37;;;;;;;9.70;8.10;;;24.00;99.90;;;;;;5023474;28;20812;-72
2022/08/04 05:42:05;;;;;;;8.93;8.13;;;24.00;99.90;;;;;;5025202;28;20425;-72
2022/08/04 05:44:32;;;;;;;8.20;7.60;;;24.10;99.90;;;;;;5027203;28;20438;-73
2022/08/04 05:46:58;;;;;;;8.50;7.60;;;24.10;99.90;;;;;;5017529;28;20529;-73
2022/08/04 05:49:27;;;;;;;8.93;7.70;;;24.10;99.90;;;;;;5031976;28;20929;-72
2022/08/04 05:51:55;;;;;;;9.83;9.03;;;24.20;99.90;;;;;;5021728;28;20456;-72
2022/08/04 05:54:23;;;;;;;8.67;7.83;;;24.20;99.90;;;;;;5025619;28;20470;-72
2022/08/04 05:56:50;;;;;;;8.00;6.80;;;24.30;99.90;;;;;;5029882;28;20444;-72
2022/08/04 05:59:18;;;;;;;6.67;6.07;;;24.30;99.90;;;;;;5037595;28;20795;-72
2022/08/04 06:01:46;;;;;;;12.20;6.63;;;24.40;99.90;;;;;;5029714;28;20556;-72
2022/08/04 06:04:13;;;;;;;8.90;8.10;;;24.40;99.90;;;;;;5027252;28;20441;-72
2022/08/04 06:06:41;;;;;;;8.23;7.43;;;24.50;99.90;;;;;;5032435;28;20436;-72
2022/08/04 06:09:06;;;;;;;9.00;8.13;;;24.50;99.90;;;;;;5022443;28;20434;-71
2022/08/04 06:11:34;;;;;;;9.13;8.17;;;24.50;99.90;;;;;;5022216;28;20452;-73
2022/08/04 06:14:03;;;;;;;11.50;8.70;;;24.60;99.90;;;;;;5021842;28;20206;-73
2022/08/04 06:16:36;;;;;;;9.17;8.27;;;24.70;99.90;;;;;;5031326;28;21032;-72
2022/08/04 06:19:08;;;;;;;10.07;9.13;;;24.70;99.90;;;;;;5031330;28;20443;-72
2022/08/04 06:21:37;;;;;;;11.10;9.10;;;24.70;99.90;;;;;;5021580;28;20476;-72
2022/08/04 06:24:06;;;;;;;11.83;9.93;;;24.70;99.90;;;;;;5022135;28;20963;-71
2022/08/04 06:26:34;;;;;;;9.60;7.30;;;24.80;99.90;;;;;;5015172;28;20914;-71
2022/08/04 06:29:01;;;;;;;8.83;8.00;;;24.90;99.90;;;;;;5015018;28;20483;-70
2022/08/04 06:31:42;;;;;;;7.93;6.17;;;24.90;99.90;;;;;;5024905;28;20440;-70
2022/08/04 06:34:10;;;;;;;6.93;6.30;;;25.00;99.90;;;;;;5018867;28;20465;-71
2022/08/04 06:36:39;;;;;;;9.30;8.50;;;25.10;99.90;;;;;;5020621;28;20441;-71
2022/08/04 06:39:07;;;;;;;10.90;7.50;;;25.10;99.90;;;;;;5019062;28;20449;-71
2022/08/04 06:41:33;;;;;;;7.90;7.17;;;25.10;99.90;;;;;;5024598;28;20520;-72
2022/08/04 06:44:03;;;;;;;10.00;6.30;;;25.20;99.90;;;;;;5022266;28;20930;-72
2022/08/04 06:46:30;;;;;;;8.33;6.90;;;25.20;99.90;;;;;;5025389;28;20430;-72
2022/08/04 06:48:57;;;;;;;9.10;8.40;;;25.30;99.90;;;;;;5036263;28;20435;-73
2022/08/04 06:51:23;;;;;;;10.07;7.43;;;25.30;99.90;;;;;;5026549;28;20470;-71
2022/08/04 06:53:50;;;;;;;12.53;9.13;;;25.40;99.90;;;;;;5022212;28;20882;-71
2022/08/04 06:56:17;;;;;;;15.07;11.50;;;25.40;99.90;;;;;;5014455;28;20440;-71
2022/08/04 06:58:45;;;;;;;13.07;11.70;;;25.50;99.90;;;;;;5017005;28;20439;-72
2022/08/04 07:01:16;;;;;;;9.23;8.33;;;25.60;99.90;;;;;;5015407;28;20460;-71
2022/08/04 07:03:46;;;;;;;10.83;9.90;;;25.60;99.90;;;;;;5019724;28;20965;-71
2022/08/04 07:06:12;;;;;;;13.13;11.93;;;25.70;99.90;;;;;;5018173;28;20449;-71
2022/08/04 07:08:39;;;;;;;11.93;10.40;;;25.70;99.90;;;;;;5029675;28;20444;-75
2022/08/04 07:11:05;;;;;;;11.70;10.57;;;25.80;99.80;;;;;;5013489;28;20433;-74
2022/08/04 07:13:35;;;;;;;13.33;10.80;;;25.90;99.90;;;;;;5020635;28;20475;-71
2022/08/04 07:16:01;;;;;;;12.50;10.10;;;25.90;99.90;;;;;;5028968;28;20602;-71
2022/08/04 07:18:29;;;;;;;12.17;10.33;;;26.00;99.80;;;;;;5023322;28;20506;-72
2022/08/04 07:20:55;;;;;;;11.33;9.83;;;26.10;98.90;;;;;;5022976;28;20521;-72
2022/08/04 07:23:24;;;;;;;8.10;7.30;;;26.10;98.50;;;;;;5018274;28;20647;-70
2022/08/04 07:25:51;;;;;;;8.50;7.70;;;26.20;98.20;;;;;;5017449;28;20522;-70
2022/08/04 07:28:18;;;;;;;8.20;7.37;;;26.30;97.40;;;;;;5024453;28;20778;-69
2022/08/04 07:30:46;;;;;;;6.77;6.27;;;26.40;97.00;;;;;;5022722;28;20922;-71
2022/08/04 07:33:13;;;;;;;6.87;6.33;;;26.50;96.20;;;;;;5031761;28;20497;-71
2022/08/04 07:35:40;;;;;;;7.00;6.40;;;26.60;94.70;;;;;;5019962;28;21261;-72
2022/08/04 07:38:05;;;;;;;6.93;6.33;;;26.80;94.10;;;;;;5021313;28;20444;-71
2022/08/04 07:40:32;;;;;;;7.00;6.50;;;26.90;93.20;;;;;;5025081;28;20441;-71
2022/08/04 07:42:58;;;;;;;7.60;7.10;;;27.10;93.80;;;;;;5023355;28;20276;-71
2022/08/04 07:45:24;;;;;;;11.63;10.80;;;27.20;94.10;;;;;;5020509;28;22190;-71
2022/08/04 07:47:50;;;;;;;8.23;7.63;;;27.40;95.70;;;;;;5027823;28;20921;-71
2022/08/04 07:50:16;;;;;;;10.53;8.93;;;27.50;94.50;;;;;;5025827;28;20479;-71
2022/08/04 07:52:44;;;;;;;7.07;6.57;;;27.60;93.20;;;;;;5017213;28;20178;-70
2022/08/04 07:55:10;;;;;;;7.90;7.10;;;27.80;92.10;;;;;;5020567;28;20468;-71
2022/08/04 07:57:36;;;;;;;7.27;6.57;;;27.90;91.70;;;;;;5022741;28;20602;-70
2022/08/04 08:00:04;;;;;;;7.03;6.57;;;28.10;91.00;;;;;;5014575;28;20474;-71
2022/08/04 08:02:30;;;;;;;10.10;7.87;;;28.20;92.60;;;;;;5014525;28;20522;-71
2022/08/04 08:04:56;;;;;;;9.17;8.47;;;28.30;92.20;;;;;;5024048;28;20446;-71
2022/08/04 08:07:22;;;;;;;7.07;6.47;;;28.40;91.40;;;;;;5017748;28;20432;-72
2022/08/04 08:09:51;;;;;;;6.70;6.30;;;28.50;90.70;;;;;;5022902;28;20512;-72
2022/08/04 08:12:17;;;;;;;6.80;6.30;;;28.60;90.70;;;;;;5034529;28;20182;-73
2022/08/04 08:14:44;;;;;;;8.17;7.57;;;28.70;89.80;;;;;;5019987;28;20479;-73
2022/08/04 08:17:10;;;;;;;7.77;7.00;;;28.80;87.50;;;;;;5029932;28;20984;-73
2022/08/04 08:19:36;;;;;;;5.93;5.63;;;28.90;87.90;;;;;;5023296;28;20520;-74
2022/08/04 08:22:02;;;;;;;6.57;6.17;;;29.00;86.80;;;;;;5024373;28;20185;-72
2022/08/04 08:24:35;;;;;;;7.57;6.97;;;29.10;85.80;;;;;;5020805;28;20947;-74
2022/08/04 08:27:05;;;;;;;6.10;5.80;;;29.30;85.90;;;;;;5022426;28;20424;-74
2022/08/04 08:29:33;;;;;;;6.70;6.30;;;29.40;85.50;;;;;;5025971;28;21992;-74
2022/08/04 08:32:00;;;;;;;5.63;5.23;;;29.50;80.40;;;;;;5027907;28;20673;-71
2022/08/04 08:34:31;;;;;;;6.57;6.17;;;29.70;78.90;;;;;;5029201;28;20816;-72
2022/08/04 08:37:22;;;;;;;5.90;5.60;;;29.90;76.80;;;;;;5027567;28;20449;-71
2022/08/04 08:40:13;;;;;;;5.93;5.73;;;30.00;76.20;;;;;;5028641;28;20436;-72
2022/08/04 08:42:47;;;;;;;5.77;5.37;;;30.10;75.10;;;;;;5033156;28;20437;-72
2022/08/04 08:45:28;;;;;;;6.13;5.73;;;30.30;75.90;;;;;;5034056;28;20408;-72
2022/08/04 08:48:09;;;;;;;6.10;5.53;;;30.40;74.90;;;;;;5034010;28;20506;-71
2022/08/04 08:51:15;;;;;;;6.30;5.80;;;30.60;73.20;;;;;;5034021;28;20559;-72
2022/08/04 08:53:51;;;;;;;6.30;5.90;;;30.80;75.00;;;;;;5018325;28;20592;-71
2022/08/04 08:56:41;;;;;;;6.70;6.23;;;31.00;71.90;;;;;;5015231;28;20509;-71
2022/08/04 08:59:27;;;;;;;6.07;5.67;;;31.10;72.50;;;;;;5028823;28;20514;-71
2022/08/04 09:02:14;;;;;;;5.80;5.50;;;31.20;70.80;;;;;;5033766;28;20401;-71
2022/08/04 09:04:57;;;;;;;6.10;5.70;;;31.30;69.30;;;;;;5032012;28;20445;-71
2022/08/04 09:07:50;;;;;;;6.60;6.00;;;31.50;68.30;;;;;;5033907;28;20420;-72
2022/08/04 09:10:39;;;;;;;5.87;5.47;;;31.60;68.60;;;;;;5028623;28;20477;-72
2022/08/04 09:13:14;;;;;;;5.53;5.23;;;31.70;66.80;;;;;;5021731;28;20469;-71
2022/08/04 09:16:01;;;;;;;5.90;5.60;;;31.80;68.00;;;;;;5030063;28;20445;-72
2022/08/04 09:18:35;;;;;;;5.60;5.20;;;31.90;67.80;;;;;;5028006;28;20443;-72
2022/08/04 09:21:22;;;;;;;5.77;5.47;;;32.00;67.30;;;;;;5015806;28;20569;-71
2022/08/04 09:24:14;;;;;;;6.30;6.00;;;32.10;65.10;;;;;;5028610;28;20836;-71
2022/08/04 09:26:53;;;;;;;5.70;5.40;;;32.20;66.00;;;;;;5028660;28;20421;-72
2022/08/04 09:29:29;;;;;;;6.00;5.70;;;32.40;65.50;;;;;;5014711;28;20400;-72
2022/08/04 09:32:09;;;;;;;5.60;5.30;;;32.40;65.50;;;;;;5012641;28;20922;-72
2022/08/04 09:35:00;;;;;;;6.10;5.70;;;32.70;64.40;;;;;;5013953;28;20560;-72
2022/08/04 09:37:42;;;;;;;5.23;4.93;;;32.70;62.80;;;;;;4998905;28;20529;-72
2022/08/04 09:40:20;;;;;;;5.43;5.13;;;32.90;63.10;;;;;;5026440;28;20460;-72
2022/08/04 09:42:51;;;;;;;5.90;5.50;;;33.00;59.50;;;;;;5033440;28;20539;-71
2022/08/04 09:45:44;;;;;;;5.20;4.90;;;33.00;58.80;;;;;;5033982;28;20447;-72
2022/08/04 09:48:42;;;;;;;5.20;4.80;;;33.20;59.10;;;;;;5032900;28;20409;-71
2022/08/04 09:51:37;;;;;;;5.83;5.50;;;33.30;60.30;;;;;;5029842;28;20488;-72
2022/08/04 09:54:26;;;;;;;6.03;5.67;;;33.30;57.40;;;;;;5032634;28;20460;-71
2022/08/04 09:57:03;;;;;;;5.77;5.47;;;33.40;58.60;;;;;;5032714;28;20809;-71
2022/08/04 09:59:29;;;;;;;5.13;4.83;;;33.40;59.10;;;;;;5019049;28;20835;-71
2022/08/04 10:02:03;;;;;;;5.07;4.80;;;33.50;59.50;;;;;;5014147;28;20426;-72
2022/08/04 10:04:31;;;;;;;5.57;5.17;;;33.50;57.30;;;;;;5032455;28;20200;-72
2022/08/04 10:06:59;;;;;;;5.50;5.20;;;33.70;58.00;;;;;;5031147;28;20796;-72
2022/08/04 10:09:49;;;;;;;5.40;5.00;;;33.80;57.60;;;;;;5033405;28;20513;-72
2022/08/04 10:12:26;;;;;;;5.53;5.10;;;34.00;56.80;;;;;;5033582;28;20420;-72
2022/08/04 10:15:18;;;;;;;5.57;5.10;;;34.10;54.30;;;;;;5032202;28;20449;-72
2022/08/04 10:17:53;;;;;;;6.83;5.33;;;34.10;54.20;;;;;;5032901;28;20457;-72
2022/08/04 10:20:27;;;;;;;6.10;5.00;;;34.00;54.30;;;;;;5031914;28;20654;-72
2022/08/04 10:23:08;;;;;;;4.73;4.53;;;34.00;53.30;;;;;;5032352;28;20417;-71
2022/08/04 10:25:55;;;;;;;4.83;4.60;;;33.90;53.50;;;;;;5031200;28;20980;-72
2022/08/04 10:28:23;;;;;;;5.00;4.70;;;33.80;52.20;;;;;;5033319;28;20422;-71
2022/08/04 10:30:56;;;;;;;4.50;4.20;;;33.80;54.20;;;;;;5030318;28;20483;-71
2022/08/04 10:33:29;;;;;;;4.80;4.60;;;33.80;54.30;;;;;;5032671;28;20448;-72
2022/08/04 10:36:03;;;;;;;4.63;4.43;;;34.00;53.40;;;;;;5031667;28;20441;-72
2022/08/04 10:38:30;;;;;;;4.20;4.10;;;34.10;52.00;;;;;;5032936;28;20401;-71
2022/08/04 10:41:02;;;;;;;4.57;4.17;;;34.30;51.20;;;;;;5019123;28;20437;-71
2022/08/04 10:44:02;;;;;;;4.80;4.50;;;34.50;49.70;;;;;;5020483;28;20837;-72
2022/08/04 10:46:45;;;;;;;4.73;4.53;;;34.60;50.10;;;;;;5031990;28;20520;-72
2022/08/04 10:49:55;;;;;;;5.10;4.90;;;34.70;49.00;;;;;;5012657;28;20410;-72
2022/08/04 10:52:41;;;;;;;4.63;4.43;;;34.90;49.80;;;;;;4993727;28;20828;-72
2022/08/04 10:55:20;;;;;;;4.80;4.60;;;35.00;49.50;;;;;;5018135;28;20531;-71
2022/08/04 10:57:58;;;;;;;5.37;4.97;;;35.10;49.50;;;;;;5026408;28;20516;-72
2022/08/04 11:00:27;;;;;;;4.50;4.30;;;35.10;46.50;;;;;;5012946;28;20462;-72
2022/08/04 11:03:19;;;;;;;5.23;5.00;;;35.00;46.80;;;;;;5021177;28;20889;-72
2022/08/04 11:05:58;;;;;;;5.57;5.20;;;35.00;48.10;;;;;;5032651;28;20873;-72
2022/08/04 11:08:41;;;;;;;5.47;5.27;;;34.90;49.30;;;;;;5032594;28;20413;-72
2022/08/04 11:11:11;;;;;;;5.73;5.37;;;34.80;49.50;;;;;;5031568;28;20413;-72
2022/08/04 11:14:03;;;;;;;5.30;4.90;;;34.70;49.00;;;;;;5016870;28;20533;-72
2022/08/04 11:16:40;;;;;;;4.37;4.27;;;34.50;47.70;;;;;;5020936;28;20409;-72
2022/08/04 11:19:19;;;;;;;4.37;4.20;;;34.40;48.00;;;;;;5011839;28;20412;-72
2022/08/04 11:22:09;;;;;;;4.07;3.97;;;34.30;48.60;;;;;;5012694;28;20413;-72
2022/08/04 11:25:13;;;;;;;4.00;3.90;;;34.10;49.60;;;;;;5012027;28;20470;-71
2022/08/04 11:28:03;;;;;;;3.63;3.53;;;34.00;47.90;;;;;;5028751;28;20978;-72
2022/08/04 11:30:43;;;;;;;3.90;3.80;;;34.00;47.70;;;;;;5028873;28;20417;-72
2022/08/04 11:33:12;;;;;;;4.20;4.00;;;34.00;47.80;;;;;;5031457;28;20427;-71
2022/08/04 11:35:47;;;;;;;7.40;4.23;;;34.20;49.00;;;;;;5032156;28;20417;-72
2022/08/04 11:38:18;;;;;;;4.60;4.30;;;34.30;49.40;;;;;;5031300;28;20854;-72
2022/08/04 11:40:49;;;;;;;3.90;3.80;;;34.40;51.50;;;;;;5031276;28;20441;-72
2022/08/04 11:43:25;;;;;;;4.40;4.20;;;34.50;51.70;;;;;;5031483;28;20601;-72
2022/08/04 11:45:59;;;;;;;4.30;4.10;;;34.40;50.10;;;;;;5029022;28;20528;-71
2022/08/04 11:48:47;;;;;;;4.50;4.30;;;34.40;51.00;;;;;;5028071;28;20521;-71
2022/08/04 11:51:16;;;;;;;5.80;5.50;;;34.40;49.90;;;;;;5024027;28;20469;-71
2022/08/04 11:53:43;;;;;;;4.43;4.13;;;34.60;51.90;;;;;;5015446;28;20446;-72
2022/08/04 11:56:14;;;;;;;6.97;6.57;;;34.70;52.40;;;;;;5019748;28;20436;-73
2022/08/04 11:58:40;;;;;;;5.80;5.50;;;34.80;51.80;;;;;;5022854;28;20456;-72
2022/08/04 12:01:57;;;;;;;5.70;5.23;;;34.80;52.40;;;;;;5034929;28;20429;-73
2022/08/04 12:04:58;;;;;;;4.70;4.40;;;34.70;51.30;;;;;;5034277;28;20555;-71
2022/08/04 12:07:57;;;;;;;6.40;4.63;;;34.70;52.50;;;;;;5025145;28;20441;-71
2022/08/04 12:10:23;;;;;;;5.40;5.10;;;34.70;51.30;;;;;;5022058;28;20425;-72
2022/08/04 12:12:55;;;;;;;5.83;5.43;;;34.70;51.30;;;;;;5032077;28;20959;-71
2022/08/04 12:15:47;;;;;;;9.30;5.90;;;34.60;52.20;;;;;;5021340;28;20282;-72
2022/08/04 12:18:23;;;;;;;5.00;4.70;;;34.50;52.00;;;;;;5023082;28;21063;-72
2022/08/04 12:20:56;;;;;;;5.20;4.50;;;34.30;52.00;;;;;;5019060;28;20522;-73
2022/08/04 12:24:01;;;;;;;5.57;5.17;;;34.20;54.60;;;;;;5025764;28;20559;-75
2022/08/04 12:26:42;;;;;;;6.30;5.37;;;34.10;55.10;;;;;;5016112;28;20963;-72
2022/08/04 12:29:13;;;;;;;5.63;5.33;;;33.90;55.00;;;;;;5025406;28;20433;-73
2022/08/04 12:31:55;;;;;;;6.50;5.37;;;33.60;55.10;;;;;;5033388;28;20782;-72
2022/08/04 12:34:42;;;;;;;6.37;5.77;;;33.30;55.60;;;;;;5033319;28;20443;-74
2022/08/04 12:37:29;;;;;;;4.50;4.20;;;33.10;55.30;;;;;;5032416;28;20425;-74
2022/08/04 12:40:01;;;;;;;4.80;4.50;;;33.00;54.90;;;;;;5027448;28;20468;-75
2022/08/04 12:42:37;;;;;;;7.67;7.17;;;32.90;55.40;;;;;;5037376;28;20437;-73
2022/08/04 12:45:09;;;;;;;4.77;4.50;;;32.70;56.00;;;;;;5039700;28;20457;-76
2022/08/04 12:47:36;;;;;;;6.83;6.43;;;32.70;57.00;;;;;;5028636;28;21016;-74
2022/08/04 12:50:05;;;;;;;5.83;5.43;;;32.50;57.00;;;;;;5032481;28;20580;-74
2022/08/04 12:52:53;;;;;;;6.07;5.60;;;32.30;57.60;;;;;;5035146;28;20862;-74
2022/08/04 12:55:23;;;;;;;5.87;5.47;;;32.10;58.00;;;;;;5032939;28;20405;-74
2022/08/04 12:57:51;;;;;;;6.03;5.50;;;31.90;58.60;;;;;;5043455;28;20519;-74
2022/08/04 13:00:32;;;;;;;6.70;5.97;;;31.70;60.00;;;;;;5053852;28;20489;-74
2022/08/04 13:03:08;;;;;;;8.73;6.20;;;31.60;61.90;;;;;;5053597;28;20884;-74
2022/08/04 13:05:35;;;;;;;6.00;5.50;;;31.40;64.30;;;;;;5030821;28;20448;-73
2022/08/04 13:08:03;;;;;;;8.63;6.43;;;31.30;65.10;;;;;;5036098;28;20442;-73
2022/08/04 13:10:30;;;;;;;7.03;6.43;;;31.30;66.60;;;;;;5037922;28;20928;-72
2022/08/04 13:12:58;;;;;;;6.77;6.30;;;31.20;65.10;;;;;;5033552;28;20825;-75
2022/08/04 13:15:25;;;;;;;5.57;5.00;;;31.10;66.30;;;;;;5038460;28;20523;-73
2022/08/04 13:18:01;;;;;;;4.90;4.60;;;31.10;66.20;;;;;;5044813;28;20893;-72
2022/08/04 13:20:33;;;;;;;8.17;4.80;;;30.90;65.70;;;;;;5034449;28;20432;-72
2022/08/04 13:23:13;;;;;;;11.53;10.43;;;30.80;66.50;;;;;;5019126;28;20430;-73
2022/08/04 13:25:50;;;;;;;5.47;5.07;;;30.80;66.70;;;;;;5032323;28;21017;-72
2022/08/04 13:28:22;;;;;;;6.77;6.17;;;30.70;67.60;;;;;;5034211;28;20427;-71
2022/08/04 13:30:58;;;;;;;16.53;15.00;;;30.70;68.00;;;;;;5040945;28;20421;-71
2022/08/04 13:33:31;;;;;;;16.47;14.80;;;30.70;68.90;;;;;;5035360;28;20413;-72
2022/08/04 13:35:58;;;;;;;9.33;8.50;;;30.60;68.40;;;;;;5053627;28;20814;-74
2022/08/04 13:38:26;;;;;;;21.50;19.60;;;30.50;69.10;;;;;;5037623;28;20918;-72